Grahamton, KY

9:45 AM EST on February 20, 2017 (GMT -0500)
| | Change Station
Active Advisory: Dense Fog Advisory

Elev -9999 ft 0.00 °N, 0.00 °E | Updated 0 second ago

Fog
Fog
°F
Feels Like °F
N
Wind Variable Wind from North
Gusts mph

Today
High -- | Low -- °F
--% Chance of Precip.
Yesterday
High -- | Low -- °F
Precip. -- in
Pressure 30.21 in
Visibility 0.2 miles
Clouds
Dew Point Not available.
Humidity Not available.
Rainfall --
Snow Depth Not available.
7:27 AM 6:28 PM
Waning Crescent, 33% visible
METAR KFTK 201358Z AUTO 05004KT 1/4SM R18/1200FT FG VV001 05/05 A3019 RMK AO2 SLP230 T00500050
Pressure 30.21 in
Visibility 0.2 miles
Clouds
Dew Point Not available.
Humidity Not available.
Rainfall --
Snow Depth Not available.
7:27 AM 6:28 PM
Waning Crescent, 33% visible
METAR KFTK 201358Z AUTO 05004KT 1/4SM R18/1200FT FG VV001 05/05 A3019 RMK AO2 SLP230 T00500050

Get Your Daily Forecast Email!

Thanks for signing up!

Be on the lookout for a verification email in your inbox.

You'll start receiving the daily forecast at 8 AM.

×

10-Day Weather Forecast

Almanac

Astronomy

Feb. 20, 2017 Rise Set
Actual Time
Civil Twilight
Nautical Twilight
Astronomical Twilight
Moon
Length of Visible Light
Length of Day
Tomorrow will be .
, % of the Moon is Illuminated

Today's Extremes

State Highs State Lows

Community

WunderPhotos

Upload Photos

1,962,540 photos uploaded!

WunderBlog® & News

Nearby

Air Quality

  Air Quality AQ Index Pollutant
Not available.

Snow Depth

Station Depth Elevation

Earthquake Activity

City Distance Mag. Time & Date
Minimum magnitude displayed is 2.5.

Coastal Water Temperatures

Place Temperature

Stations

Nearby Weather Stations

Station Location Temp. Windchill Dew Point Humidity Wind Precip. Elev Updated Type
                   

Watches & Warnings

Dense Fog Advisory
Issued: 7:43 AM CST Feb. 20, 2017 – National Weather Service

... Dense fog advisory in effect until 10 am EST /9 am CST/ this
morning...

The National Weather Service in Louisville has issued a dense fog
advisory, which is in effect until 10 am EST /9 am CST/ this
morning.

* Visibility... 1/4 mile or less at times.

* Impacts... allow extra time to reach their destination.

Precautionary/preparedness actions...

A dense fog advisory means visibilities will frequently be
reduced to less than one quarter mile. If driving... slow down...
use your low beam headlights... and leave plenty of distance ahead
of you.